KMEV/MEV METAR and TAF weather

Enter ICAO airport designator
Station Type Date Time Source
KMEV METAR 2022/07/03 15:15 UTC NOAA

KMEV 031515Z AUTO VRB04KT 10SM CLR 20/M03 A2998 RMK AO2


Station Type Date Time Source
KMEV Decoded METAR 2022/07/03 15:15 UTC NOAA

Station name not available
Jul 03, 2022 - 11:15 AM EDT / 2022.07.03 1515 UTC
Wind: Variable at 5 MPH (4 KT):0
Visibility: 10 mile(s):0
Sky conditions: clear
Temperature: 68 F (20 C)
Dew Point: 26 F (-3 C)
Relative Humidity: 20%
Pressure (altimeter): 29.98 in. Hg (1015 hPa)
ob: KMEV 031515Z AUTO VRB04KT 10SM CLR 20/M03 A2998 RMK AO2
cycle: 15

Station Type Date Time Source
KMEV TAF 2022/07/03 12:30 UTC NOAA

TAF KMEV 031129Z 0312/0412 10007KT P6SM SCT200
FM031900 24014G24KT P6SM FEW120 BKN200
FM040400 VRB04KT P6SM FEW150

Example: see airport list